sensor_id;sensor_type;location;lat;lon;timestamp;temperature;humidity
20658;DHT22;10488;50.846;4.078;2022-09-20T00:00:40;11.30;99.90
20658;DHT22;10488;50.846;4.078;2022-09-20T00:03:06;11.30;99.90
20658;DHT22;10488;50.846;4.078;2022-09-20T00:05:35;11.20;99.90
20658;DHT22;10488;50.846;4.078;2022-09-20T00:08:03;11.20;99.90
20658;DHT22;10488;50.846;4.078;2022-09-20T00:10:35;11.20;99.90
20658;DHT22;10488;50.846;4.078;2022-09-20T00:13:04;11.00;99.90
20658;DHT22;10488;50.846;4.078;2022-09-20T00:15:32;11.10;99.90
20658;DHT22;10488;50.846;4.078;2022-09-20T00:17:58;11.20;99.90
20658;DHT22;10488;50.846;4.078;2022-09-20T00:20:25;11.10;99.90
20658;DHT22;10488;50.846;4.078;2022-09-20T00:22:51;11.10;99.90
20658;DHT22;10488;50.846;4.078;2022-09-20T00:25:17;11.00;99.90
20658;DHT22;10488;50.846;4.078;2022-09-20T00:27:44;11.00;99.90
20658;DHT22;10488;50.846;4.078;2022-09-20T00:30:11;10.90;99.90
20658;DHT22;10488;50.846;4.078;2022-09-20T00:32:37;10.80;99.90
20658;DHT22;10488;50.846;4.078;2022-09-20T00:35:03;10.70;99.90
20658;DHT22;10488;50.846;4.078;2022-09-20T00:37:33;10.80;99.90
20658;DHT22;10488;50.846;4.078;2022-09-20T00:39:59;10.80;99.90
20658;DHT22;10488;50.846;4.078;2022-09-20T00:42:29;10.80;99.90
20658;DHT22;10488;50.846;4.078;2022-09-20T00:44:57;10.90;99.90
20658;DHT22;10488;50.846;4.078;2022-09-20T00:49:51;10.70;99.90
20658;DHT22;10488;50.846;4.078;2022-09-20T00:52:17;10.70;99.90
20658;DHT22;10488;50.846;4.078;2022-09-20T00:54:43;10.70;99.90
20658;DHT22;10488;50.846;4.078;2022-09-20T00:57:09;10.90;99.90
20658;DHT22;10488;50.846;4.078;2022-09-20T00:59:39;10.90;99.90
20658;DHT22;10488;50.846;4.078;2022-09-20T01:02:15;11.00;99.90
20658;DHT22;10488;50.846;4.078;2022-09-20T01:04:41;10.90;99.90
20658;DHT22;10488;50.846;4.078;2022-09-20T01:07:12;11.00;99.90
20658;DHT22;10488;50.846;4.078;2022-09-20T01:09:40;11.10;99.90
20658;DHT22;10488;50.846;4.078;2022-09-20T01:12:10;11.00;99.90
20658;DHT22;10488;50.846;4.078;2022-09-20T01:14:38;10.90;99.90
20658;DHT22;10488;50.846;4.078;2022-09-20T01:17:05;11.00;99.90
20658;DHT22;10488;50.846;4.078;2022-09-20T01:22:27;10.70;99.90
20658;DHT22;10488;50.846;4.078;2022-09-20T01:25:25;10.50;99.90
20658;DHT22;10488;50.846;4.078;2022-09-20T01:27:54;10.60;99.90
20658;DHT22;10488;50.846;4.078;2022-09-20T01:30:23;10.40;99.90
20658;DHT22;10488;50.846;4.078;2022-09-20T01:35:39;10.50;99.90
20658;DHT22;10488;50.846;4.078;2022-09-20T01:46:08;10.30;99.90
20658;DHT22;10488;50.846;4.078;2022-09-20T01:48:37;10.20;99.90
20658;DHT22;10488;50.846;4.078;2022-09-20T01:54:30;10.30;99.90
20658;DHT22;10488;50.846;4.078;2022-09-20T02:00:25;9.90;99.90
20658;DHT22;10488;50.846;4.078;2022-09-20T02:16:55;10.20;99.90
20658;DHT22;10488;50.846;4.078;2022-09-20T02:22:21;10.40;99.90
20658;DHT22;10488;50.846;4.078;2022-09-20T02:30:14;10.30;99.90
20658;DHT22;10488;50.846;4.078;2022-09-20T02:36:21;10.60;99.90
20658;DHT22;10488;50.846;4.078;2022-09-20T02:39:16;10.50;99.90
20658;DHT22;10488;50.846;4.078;2022-09-20T03:09:33;10.90;99.90
20658;DHT22;10488;50.846;4.078;2022-09-20T03:17:46;10.70;99.90
20658;DHT22;10488;50.846;4.078;2022-09-20T03:29:24;10.60;99.90
20658;DHT22;10488;50.846;4.078;2022-09-20T03:32:07;10.70;99.90
20658;DHT22;10488;50.846;4.078;2022-09-20T03:37:41;10.50;99.90
20658;DHT22;10488;50.846;4.078;2022-09-20T03:49:05;10.40;99.90
20658;DHT22;10488;50.846;4.078;2022-09-20T04:00:22;10.40;99.90
20658;DHT22;10488;50.846;4.078;2022-09-20T04:05:32;10.50;99.90
20658;DHT22;10488;50.846;4.078;2022-09-20T04:08:43;10.40;99.90
20658;DHT22;10488;50.846;4.078;2022-09-20T04:11:30;10.30;99.90
20658;DHT22;10488;50.846;4.078;2022-09-20T04:14:38;10.30;99.90
20658;DHT22;10488;50.846;4.078;2022-09-20T04:20:54;10.30;99.90
20658;DHT22;10488;50.846;4.078;2022-09-20T04:23:07;10.20;99.90
20658;DHT22;10488;50.846;4.078;2022-09-20T04:25:41;10.20;99.90
20658;DHT22;10488;50.846;4.078;2022-09-20T04:28:14;10.10;99.90
20658;DHT22;10488;50.846;4.078;2022-09-20T04:30:41;10.10;99.90
20658;DHT22;10488;50.846;4.078;2022-09-20T04:33:30;10.10;99.90
20658;DHT22;10488;50.846;4.078;2022-09-20T04:47:22;9.90;99.90
20658;DHT22;10488;50.846;4.078;2022-09-20T04:50:33;9.90;99.90
20658;DHT22;10488;50.846;4.078;2022-09-20T05:00:08;9.70;99.90
20658;DHT22;10488;50.846;4.078;2022-09-20T05:10:53;9.70;99.90
20658;DHT22;10488;50.846;4.078;2022-09-20T05:30:43;9.30;99.90
20658;DHT22;10488;50.846;4.078;2022-09-20T05:33:21;9.30;99.90
20658;DHT22;10488;50.846;4.078;2022-09-20T05:41:42;9.10;99.90
20658;DHT22;10488;50.846;4.078;2022-09-20T05:58:22;9.40;99.90
20658;DHT22;10488;50.846;4.078;2022-09-20T06:01:07;9.50;99.90
20658;DHT22;10488;50.846;4.078;2022-09-20T06:06:38;9.60;99.90
20658;DHT22;10488;50.846;4.078;2022-09-20T06:12:35;9.70;99.90
20658;DHT22;10488;50.846;4.078;2022-09-20T06:15:35;9.80;99.90
20658;DHT22;10488;50.846;4.078;2022-09-20T06:18:20;10.30;99.90
20658;DHT22;10488;50.846;4.078;2022-09-20T06:20:59;10.50;99.90
20658;DHT22;10488;50.846;4.078;2022-09-20T06:23:26;10.80;99.90
20658;DHT22;10488;50.846;4.078;2022-09-20T06:25:55;11.00;99.90
20658;DHT22;10488;50.846;4.078;2022-09-20T06:28:38;11.10;99.90
20658;DHT22;10488;50.846;4.078;2022-09-20T06:31:05;11.30;99.90
20658;DHT22;10488;50.846;4.078;2022-09-20T06:33:41;11.10;99.90
20658;DHT22;10488;50.846;4.078;2022-09-20T06:36:22;11.00;99.90
20658;DHT22;10488;50.846;4.078;2022-09-20T06:42:07;10.40;99.90
20658;DHT22;10488;50.846;4.078;2022-09-20T06:44:35;10.50;99.90
20658;DHT22;10488;50.846;4.078;2022-09-20T06:47:09;10.40;99.90
20658;DHT22;10488;50.846;4.078;2022-09-20T06:49:35;10.60;99.90
20658;DHT22;10488;50.846;4.078;2022-09-20T06:52:10;11.10;99.90
20658;DHT22;10488;50.846;4.078;2022-09-20T06:54:37;11.60;99.90
20658;DHT22;10488;50.846;4.078;2022-09-20T06:57:05;12.00;99.90
20658;DHT22;10488;50.846;4.078;2022-09-20T06:59:31;12.40;99.90
20658;DHT22;10488;50.846;4.078;2022-09-20T07:01:57;12.70;99.90
20658;DHT22;10488;50.846;4.078;2022-09-20T07:04:23;12.60;99.90
20658;DHT22;10488;50.846;4.078;2022-09-20T07:06:51;12.70;99.90
20658;DHT22;10488;50.846;4.078;2022-09-20T07:09:18;12.80;99.90
20658;DHT22;10488;50.846;4.078;2022-09-20T07:11:44;13.00;99.90
20658;DHT22;10488;50.846;4.078;2022-09-20T07:14:10;13.30;99.90
20658;DHT22;10488;50.846;4.078;2022-09-20T07:16:37;13.90;99.90
20658;DHT22;10488;50.846;4.078;2022-09-20T07:19:03;14.10;99.90
20658;DHT22;10488;50.846;4.078;2022-09-20T07:21:31;14.40;99.90
20658;DHT22;10488;50.846;4.078;2022-09-20T07:23:56;15.10;99.90
20658;DHT22;10488;50.846;4.078;2022-09-20T07:26:27;15.10;99.90
20658;DHT22;10488;50.846;4.078;2022-09-20T07:28:54;15.00;99.90
20658;DHT22;10488;50.846;4.078;2022-09-20T07:31:21;16.00;99.90
20658;DHT22;10488;50.846;4.078;2022-09-20T07:33:48;16.50;99.90
20658;DHT22;10488;50.846;4.078;2022-09-20T07:36:14;16.90;99.90
20658;DHT22;10488;50.846;4.078;2022-09-20T07:38:41;17.50;99.90
20658;DHT22;10488;50.846;4.078;2022-09-20T07:41:08;17.40;99.90
20658;DHT22;10488;50.846;4.078;2022-09-20T07:43:35;17.60;99.90
20658;DHT22;10488;50.846;4.078;2022-09-20T07:46:01;17.00;99.90
20658;DHT22;10488;50.846;4.078;2022-09-20T07:48:33;17.60;99.90
20658;DHT22;10488;50.846;4.078;2022-09-20T07:51:06;17.50;99.90
20658;DHT22;10488;50.846;4.078;2022-09-20T07:53:32;17.50;99.90
20658;DHT22;10488;50.846;4.078;2022-09-20T07:56:12;17.70;99.90
20658;DHT22;10488;50.846;4.078;2022-09-20T07:58:39;17.80;99.90
20658;DHT22;10488;50.846;4.078;2022-09-20T08:01:10;17.50;99.90
20658;DHT22;10488;50.846;4.078;2022-09-20T08:03:37;17.40;99.90
20658;DHT22;10488;50.846;4.078;2022-09-20T08:06:05;16.50;99.90
20658;DHT22;10488;50.846;4.078;2022-09-20T08:08:36;16.30;99.90
20658;DHT22;10488;50.846;4.078;2022-09-20T08:11:07;16.80;99.90
20658;DHT22;10488;50.846;4.078;2022-09-20T08:13:44;16.70;99.90
20658;DHT22;10488;50.846;4.078;2022-09-20T08:16:10;16.70;99.90
20658;DHT22;10488;50.846;4.078;2022-09-20T08:18:37;17.70;99.90
20658;DHT22;10488;50.846;4.078;2022-09-20T08:21:07;17.90;99.90
20658;DHT22;10488;50.846;4.078;2022-09-20T08:23:41;18.60;99.90
20658;DHT22;10488;50.846;4.078;2022-09-20T08:26:10;18.80;99.90
20658;DHT22;10488;50.846;4.078;2022-09-20T08:28:37;18.60;99.90
20658;DHT22;10488;50.846;4.078;2022-09-20T08:31:11;17.60;99.90
20658;DHT22;10488;50.846;4.078;2022-09-20T08:33:41;17.40;99.90
20658;DHT22;10488;50.846;4.078;2022-09-20T08:36:11;17.50;99.90
20658;DHT22;10488;50.846;4.078;2022-09-20T08:38:37;17.60;99.90
20658;DHT22;10488;50.846;4.078;2022-09-20T08:41:10;18.00;99.90
20658;DHT22;10488;50.846;4.078;2022-09-20T08:46:31;17.30;99.90
20658;DHT22;10488;50.846;4.078;2022-09-20T08:48:59;17.60;99.90
20658;DHT22;10488;50.846;4.078;2022-09-20T08:51:29;17.70;99.90
20658;DHT22;10488;50.846;4.078;2022-09-20T08:53:55;18.10;99.90
20658;DHT22;10488;50.846;4.078;2022-09-20T08:56:27;18.40;99.90
20658;DHT22;10488;50.846;4.078;2022-09-20T08:58:53;18.40;99.90
20658;DHT22;10488;50.846;4.078;2022-09-20T09:01:22;17.50;99.90
20658;DHT22;10488;50.846;4.078;2022-09-20T09:03:57;17.80;99.90
20658;DHT22;10488;50.846;4.078;2022-09-20T09:06:23;18.10;99.90
20658;DHT22;10488;50.846;4.078;2022-09-20T09:08:49;17.80;99.90
20658;DHT22;10488;50.846;4.078;2022-09-20T09:11:18;17.40;99.90
20658;DHT22;10488;50.846;4.078;2022-09-20T09:13:53;17.10;99.90
20658;DHT22;10488;50.846;4.078;2022-09-20T09:16:23;17.30;99.90
20658;DHT22;10488;50.846;4.078;2022-09-20T09:18:50;17.00;99.90
20658;DHT22;10488;50.846;4.078;2022-09-20T09:21:22;16.80;99.90
20658;DHT22;10488;50.846;4.078;2022-09-20T09:24:05;17.10;99.90
20658;DHT22;10488;50.846;4.078;2022-09-20T09:26:39;16.70;99.90
20658;DHT22;10488;50.846;4.078;2022-09-20T09:29:20;16.80;99.90
20658;DHT22;10488;50.846;4.078;2022-09-20T09:31:49;17.10;99.90
20658;DHT22;10488;50.846;4.078;2022-09-20T09:34:27;17.00;99.90
20658;DHT22;10488;50.846;4.078;2022-09-20T09:36:55;17.30;99.90
20658;DHT22;10488;50.846;4.078;2022-09-20T09:41:55;17.60;99.90
20658;DHT22;10488;50.846;4.078;2022-09-20T09:44:22;17.50;99.90
20658;DHT22;10488;50.846;4.078;2022-09-20T09:46:49;17.60;99.90
20658;DHT22;10488;50.846;4.078;2022-09-20T09:49:26;18.10;99.90
20658;DHT22;10488;50.846;4.078;2022-09-20T09:54:36;18.10;99.90
20658;DHT22;10488;50.846;4.078;2022-09-20T10:00:12;17.70;99.90
20658;DHT22;10488;50.846;4.078;2022-09-20T10:05:36;18.00;99.90
20658;DHT22;10488;50.846;4.078;2022-09-20T10:13:56;17.70;99.90
20658;DHT22;10488;50.846;4.078;2022-09-20T10:30:11;18.40;99.90
20658;DHT22;10488;50.846;4.078;2022-09-20T10:38:17;18.20;99.90
20658;DHT22;10488;50.846;4.078;2022-09-20T10:44:36;17.20;99.90
20658;DHT22;10488;50.846;4.078;2022-09-20T10:47:16;17.90;99.90
20658;DHT22;10488;50.846;4.078;2022-09-20T11:09:22;17.90;99.90
20658;DHT22;10488;50.846;4.078;2022-09-20T11:14:45;17.90;99.90
20658;DHT22;10488;50.846;4.078;2022-09-20T11:17:29;18.00;99.90
20658;DHT22;10488;50.846;4.078;2022-09-20T11:20:06;18.30;99.90
20658;DHT22;10488;50.846;4.078;2022-09-20T11:22:54;18.80;99.90
20658;DHT22;10488;50.846;4.078;2022-09-20T11:25:33;18.80;99.90
20658;DHT22;10488;50.846;4.078;2022-09-20T11:28:29;19.10;99.90
20658;DHT22;10488;50.846;4.078;2022-09-20T11:31:16;18.70;99.90
20658;DHT22;10488;50.846;4.078;2022-09-20T11:33:51;18.60;99.90
20658;DHT22;10488;50.846;4.078;2022-09-20T11:38:49;18.90;99.90
20658;DHT22;10488;50.846;4.078;2022-09-20T11:41:21;18.70;99.90
20658;DHT22;10488;50.846;4.078;2022-09-20T11:43:50;17.80;99.90
20658;DHT22;10488;50.846;4.078;2022-09-20T11:46:22;17.70;99.90
20658;DHT22;10488;50.846;4.078;2022-09-20T11:48:57;18.10;99.90
20658;DHT22;10488;50.846;4.078;2022-09-20T11:56:49;18.00;99.90
20658;DHT22;10488;50.846;4.078;2022-09-20T11:59:36;17.70;99.90
20658;DHT22;10488;50.846;4.078;2022-09-20T12:02:15;17.10;99.90
20658;DHT22;10488;50.846;4.078;2022-09-20T12:04:45;17.00;99.90
20658;DHT22;10488;50.846;4.078;2022-09-20T12:07:19;17.20;99.90
20658;DHT22;10488;50.846;4.078;2022-09-20T12:09:56;17.80;99.90
20658;DHT22;10488;50.846;4.078;2022-09-20T12:12:41;17.60;99.90
20658;DHT22;10488;50.846;4.078;2022-09-20T12:15:22;17.50;99.90
20658;DHT22;10488;50.846;4.078;2022-09-20T12:28:55;18.60;99.90
20658;DHT22;10488;50.846;4.078;2022-09-20T12:36:40;18.60;99.90
20658;DHT22;10488;50.846;4.078;2022-09-20T12:57:57;16.60;99.90
20658;DHT22;10488;50.846;4.078;2022-09-20T13:02:57;16.80;99.90
20658;DHT22;10488;50.846;4.078;2022-09-20T13:05:35;16.70;99.90
20658;DHT22;10488;50.846;4.078;2022-09-20T13:08:12;16.40;99.90
20658;DHT22;10488;50.846;4.078;2022-09-20T13:13:54;16.50;99.90
20658;DHT22;10488;50.846;4.078;2022-09-20T13:16:26;16.50;99.90
20658;DHT22;10488;50.846;4.078;2022-09-20T13:21:35;16.80;99.90
20658;DHT22;10488;50.846;4.078;2022-09-20T13:24:03;16.60;99.90
20658;DHT22;10488;50.846;4.078;2022-09-20T13:26:38;16.70;99.90
20658;DHT22;10488;50.846;4.078;2022-09-20T13:29:06;16.20;99.90
20658;DHT22;10488;50.846;4.078;2022-09-20T13:31:34;16.30;99.90
20658;DHT22;10488;50.846;4.078;2022-09-20T13:34:23;16.40;99.90
20658;DHT22;10488;50.846;4.078;2022-09-20T13:36:53;15.90;99.90
20658;DHT22;10488;50.846;4.078;2022-09-20T13:39:37;16.20;99.90
20658;DHT22;10488;50.846;4.078;2022-09-20T13:42:07;16.10;99.90
20658;DHT22;10488;50.846;4.078;2022-09-20T13:44:33;16.20;99.90
20658;DHT22;10488;50.846;4.078;2022-09-20T13:47:00;16.00;99.90
20658;DHT22;10488;50.846;4.078;2022-09-20T13:49:31;16.20;99.90
20658;DHT22;10488;50.846;4.078;2022-09-20T13:51:56;16.20;99.90
20658;DHT22;10488;50.846;4.078;2022-09-20T13:54:26;16.00;99.90
20658;DHT22;10488;50.846;4.078;2022-09-20T13:56:55;15.70;99.90
20658;DHT22;10488;50.846;4.078;2022-09-20T13:59:22;16.00;99.90
20658;DHT22;10488;50.846;4.078;2022-09-20T14:01:50;16.30;99.90
20658;DHT22;10488;50.846;4.078;2022-09-20T14:04:20;16.50;99.90
20658;DHT22;10488;50.846;4.078;2022-09-20T14:06:48;16.50;99.90
20658;DHT22;10488;50.846;4.078;2022-09-20T14:09:34;16.60;99.90
20658;DHT22;10488;50.846;4.078;2022-09-20T14:12:04;16.30;99.90
20658;DHT22;10488;50.846;4.078;2022-09-20T14:14:32;16.60;99.90
20658;DHT22;10488;50.846;4.078;2022-09-20T14:17:00;16.70;99.90
20658;DHT22;10488;50.846;4.078;2022-09-20T14:19:48;16.60;99.90
20658;DHT22;10488;50.846;4.078;2022-09-20T14:22:22;16.70;99.90
20658;DHT22;10488;50.846;4.078;2022-09-20T14:25:00;17.00;99.90
20658;DHT22;10488;50.846;4.078;2022-09-20T14:27:27;17.10;99.90
20658;DHT22;10488;50.846;4.078;2022-09-20T14:29:55;17.00;99.90
20658;DHT22;10488;50.846;4.078;2022-09-20T14:32:37;16.50;99.90
20658;DHT22;10488;50.846;4.078;2022-09-20T14:35:15;16.40;99.90
20658;DHT22;10488;50.846;4.078;2022-09-20T14:37:43;17.00;99.90
20658;DHT22;10488;50.846;4.078;2022-09-20T14:50:43;17.40;99.90
20658;DHT22;10488;50.846;4.078;2022-09-20T14:55:36;17.20;99.90
20658;DHT22;10488;50.846;4.078;2022-09-20T14:58:13;17.10;99.90
20658;DHT22;10488;50.846;4.078;2022-09-20T15:01:26;17.00;99.90
20658;DHT22;10488;50.846;4.078;2022-09-20T15:03:51;17.20;99.90
20658;DHT22;10488;50.846;4.078;2022-09-20T15:06:17;17.70;99.90
20658;DHT22;10488;50.846;4.078;2022-09-20T15:08:43;17.70;99.90
20658;DHT22;10488;50.846;4.078;2022-09-20T15:11:18;17.80;99.90
20658;DHT22;10488;50.846;4.078;2022-09-20T15:13:45;18.10;99.90
20658;DHT22;10488;50.846;4.078;2022-09-20T15:16:12;17.90;99.90
20658;DHT22;10488;50.846;4.078;2022-09-20T15:18:41;17.30;99.90
20658;DHT22;10488;50.846;4.078;2022-09-20T15:21:07;17.20;99.90
20658;DHT22;10488;50.846;4.078;2022-09-20T15:23:35;16.80;99.90
20658;DHT22;10488;50.846;4.078;2022-09-20T15:26:01;17.00;99.90
20658;DHT22;10488;50.846;4.078;2022-09-20T15:28:28;16.60;99.90
20658;DHT22;10488;50.846;4.078;2022-09-20T15:30:53;16.30;99.90
20658;DHT22;10488;50.846;4.078;2022-09-20T15:33:20;16.40;99.90
20658;DHT22;10488;50.846;4.078;2022-09-20T15:35:46;16.40;99.90
20658;DHT22;10488;50.846;4.078;2022-09-20T15:38:13;16.50;99.90
20658;DHT22;10488;50.846;4.078;2022-09-20T15:40:42;16.50;99.90
20658;DHT22;10488;50.846;4.078;2022-09-20T15:43:11;16.40;99.90
20658;DHT22;10488;50.846;4.078;2022-09-20T15:45:49;16.60;99.90
20658;DHT22;10488;50.846;4.078;2022-09-20T15:48:17;16.30;99.90
20658;DHT22;10488;50.846;4.078;2022-09-20T15:51:05;16.20;99.90
20658;DHT22;10488;50.846;4.078;2022-09-20T15:53:39;16.30;99.90
20658;DHT22;10488;50.846;4.078;2022-09-20T15:56:15;16.30;99.90
20658;DHT22;10488;50.846;4.078;2022-09-20T15:58:47;16.20;99.90
20658;DHT22;10488;50.846;4.078;2022-09-20T16:01:15;16.00;99.90
20658;DHT22;10488;50.846;4.078;2022-09-20T16:03:41;15.90;99.90
20658;DHT22;10488;50.846;4.078;2022-09-20T16:06:07;16.00;99.90
20658;DHT22;10488;50.846;4.078;2022-09-20T16:08:38;16.00;99.90
20658;DHT22;10488;50.846;4.078;2022-09-20T16:11:05;16.00;99.90
20658;DHT22;10488;50.846;4.078;2022-09-20T16:13:32;15.80;99.90
20658;DHT22;10488;50.846;4.078;2022-09-20T16:16:01;15.70;99.90
20658;DHT22;10488;50.846;4.078;2022-09-20T16:18:27;15.70;99.90
20658;DHT22;10488;50.846;4.078;2022-09-20T16:21:14;15.70;99.90
20658;DHT22;10488;50.846;4.078;2022-09-20T16:23:43;15.70;99.90
20658;DHT22;10488;50.846;4.078;2022-09-20T16:26:11;15.50;99.90
20658;DHT22;10488;50.846;4.078;2022-09-20T16:28:41;15.30;99.90
20658;DHT22;10488;50.846;4.078;2022-09-20T16:33:53;14.90;99.90
20658;DHT22;10488;50.846;4.078;2022-09-20T16:36:19;14.70;99.90
20658;DHT22;10488;50.846;4.078;2022-09-20T16:38:45;14.80;99.90
20658;DHT22;10488;50.846;4.078;2022-09-20T16:41:11;14.70;99.90
20658;DHT22;10488;50.846;4.078;2022-09-20T16:43:36;14.70;99.90
20658;DHT22;10488;50.846;4.078;2022-09-20T16:46:02;14.70;99.90
20658;DHT22;10488;50.846;4.078;2022-09-20T16:48:29;14.80;99.90
20658;DHT22;10488;50.846;4.078;2022-09-20T16:50:56;14.60;99.90
20658;DHT22;10488;50.846;4.078;2022-09-20T16:53:27;14.40;99.90
20658;DHT22;10488;50.846;4.078;2022-09-20T16:55:54;14.30;99.90
20658;DHT22;10488;50.846;4.078;2022-09-20T16:58:29;14.40;99.90
20658;DHT22;10488;50.846;4.078;2022-09-20T17:01:07;14.30;99.90
20658;DHT22;10488;50.846;4.078;2022-09-20T17:03:35;14.30;99.90
20658;DHT22;10488;50.846;4.078;2022-09-20T17:06:02;14.30;99.90
20658;DHT22;10488;50.846;4.078;2022-09-20T17:08:29;14.50;99.90
20658;DHT22;10488;50.846;4.078;2022-09-20T17:10:59;14.40;99.90
20658;DHT22;10488;50.846;4.078;2022-09-20T17:13:26;14.00;99.90
20658;DHT22;10488;50.846;4.078;2022-09-20T17:16:04;14.00;99.90
20658;DHT22;10488;50.846;4.078;2022-09-20T17:18:30;13.90;99.90
20658;DHT22;10488;50.846;4.078;2022-09-20T17:21:04;13.80;99.90
20658;DHT22;10488;50.846;4.078;2022-09-20T17:23:30;13.90;99.90
20658;DHT22;10488;50.846;4.078;2022-09-20T17:28:36;13.90;99.90
20658;DHT22;10488;50.846;4.078;2022-09-20T17:31:04;14.00;99.90
20658;DHT22;10488;50.846;4.078;2022-09-20T17:33:31;13.50;99.90
20658;DHT22;10488;50.846;4.078;2022-09-20T17:35:58;13.60;99.90
20658;DHT22;10488;50.846;4.078;2022-09-20T17:38:29;13.50;99.90
20658;DHT22;10488;50.846;4.078;2022-09-20T17:41:02;13.60;99.90
20658;DHT22;10488;50.846;4.078;2022-09-20T17:43:28;13.30;99.90
20658;DHT22;10488;50.846;4.078;2022-09-20T17:46:03;13.40;99.90
20658;DHT22;10488;50.846;4.078;2022-09-20T17:48:29;13.50;99.90
20658;DHT22;10488;50.846;4.078;2022-09-20T17:50:56;13.60;99.90
20658;DHT22;10488;50.846;4.078;2022-09-20T17:53:21;13.60;99.90
20658;DHT22;10488;50.846;4.078;2022-09-20T17:55:57;13.30;99.90
20658;DHT22;10488;50.846;4.078;2022-09-20T17:58:23;12.90;99.90
20658;DHT22;10488;50.846;4.078;2022-09-20T18:00:49;12.70;99.90
20658;DHT22;10488;50.846;4.078;2022-09-20T18:03:15;12.90;99.90
20658;DHT22;10488;50.846;4.078;2022-09-20T18:05:41;12.90;99.90
20658;DHT22;10488;50.846;4.078;2022-09-20T18:08:07;13.00;99.90
20658;DHT22;10488;50.846;4.078;2022-09-20T18:10:33;13.00;99.90
20658;DHT22;10488;50.846;4.078;2022-09-20T18:12:59;13.10;99.90
20658;DHT22;10488;50.846;4.078;2022-09-20T18:15:26;13.10;99.90
20658;DHT22;10488;50.846;4.078;2022-09-20T18:17:52;13.00;99.90
20658;DHT22;10488;50.846;4.078;2022-09-20T18:20:18;13.00;99.90
20658;DHT22;10488;50.846;4.078;2022-09-20T18:22:47;13.00;99.90
20658;DHT22;10488;50.846;4.078;2022-09-20T18:25:13;13.00;99.90
20658;DHT22;10488;50.846;4.078;2022-09-20T18:27:38;13.00;99.90
20658;DHT22;10488;50.846;4.078;2022-09-20T18:30:05;13.00;99.90
20658;DHT22;10488;50.846;4.078;2022-09-20T18:32:31;12.90;99.90
20658;DHT22;10488;50.846;4.078;2022-09-20T18:34:56;12.90;99.90
20658;DHT22;10488;50.846;4.078;2022-09-20T18:37:22;12.90;99.90
20658;DHT22;10488;50.846;4.078;2022-09-20T18:39:48;12.80;99.90
20658;DHT22;10488;50.846;4.078;2022-09-20T18:42:14;12.80;99.90
20658;DHT22;10488;50.846;4.078;2022-09-20T18:44:40;12.70;99.90
20658;DHT22;10488;50.846;4.078;2022-09-20T18:47:08;12.70;99.90
20658;DHT22;10488;50.846;4.078;2022-09-20T18:49:34;12.30;99.90
20658;DHT22;10488;50.846;4.078;2022-09-20T18:52:00;12.40;99.90
20658;DHT22;10488;50.846;4.078;2022-09-20T18:54:27;12.40;99.90
20658;DHT22;10488;50.846;4.078;2022-09-20T18:56:56;12.40;99.90
20658;DHT22;10488;50.846;4.078;2022-09-20T18:59:24;12.40;99.90
20658;DHT22;10488;50.846;4.078;2022-09-20T19:18:10;12.00;99.90
20658;DHT22;10488;50.846;4.078;2022-09-20T19:20:47;12.00;99.90
20658;DHT22;10488;50.846;4.078;2022-09-20T19:26:18;12.00;99.90
20658;DHT22;10488;50.846;4.078;2022-09-20T19:28:44;12.00;99.90
20658;DHT22;10488;50.846;4.078;2022-09-20T19:31:31;11.90;99.90
20658;DHT22;10488;50.846;4.078;2022-09-20T19:34:00;11.90;99.90
20658;DHT22;10488;50.846;4.078;2022-09-20T19:39:12;11.90;99.90
20658;DHT22;10488;50.846;4.078;2022-09-20T19:41:54;11.90;99.90
20658;DHT22;10488;50.846;4.078;2022-09-20T19:47:38;11.70;99.90
20658;DHT22;10488;50.846;4.078;2022-09-20T19:50:18;11.60;99.90
20658;DHT22;10488;50.846;4.078;2022-09-20T19:52:53;11.60;99.90
20658;DHT22;10488;50.846;4.078;2022-09-20T19:55:20;11.60;99.90
20658;DHT22;10488;50.846;4.078;2022-09-20T19:57:47;11.50;99.90
20658;DHT22;10488;50.846;4.078;2022-09-20T20:00:15;11.60;99.90
20658;DHT22;10488;50.846;4.078;2022-09-20T20:02:42;11.50;99.90
20658;DHT22;10488;50.846;4.078;2022-09-20T20:05:16;11.20;99.90
20658;DHT22;10488;50.846;4.078;2022-09-20T20:13:18;11.30;99.90
20658;DHT22;10488;50.846;4.078;2022-09-20T20:16:06;11.40;99.90
20658;DHT22;10488;50.846;4.078;2022-09-20T20:24:25;11.40;99.90
20658;DHT22;10488;50.846;4.078;2022-09-20T20:26:53;11.30;99.90
20658;DHT22;10488;50.846;4.078;2022-09-20T20:29:19;11.30;99.90
20658;DHT22;10488;50.846;4.078;2022-09-20T20:31:45;11.30;99.90
20658;DHT22;10488;50.846;4.078;2022-09-20T20:34:11;11.20;99.90
20658;DHT22;10488;50.846;4.078;2022-09-20T20:36:41;11.30;99.90
20658;DHT22;10488;50.846;4.078;2022-09-20T20:39:08;11.30;99.90
20658;DHT22;10488;50.846;4.078;2022-09-20T20:41:33;11.30;99.90
20658;DHT22;10488;50.846;4.078;2022-09-20T20:44:00;11.30;99.90
20658;DHT22;10488;50.846;4.078;2022-09-20T20:46:30;11.20;99.90
20658;DHT22;10488;50.846;4.078;2022-09-20T20:48:57;11.20;99.90
20658;DHT22;10488;50.846;4.078;2022-09-20T20:51:23;11.10;99.90
20658;DHT22;10488;50.846;4.078;2022-09-20T20:53:51;11.10;99.90
20658;DHT22;10488;50.846;4.078;2022-09-20T20:56:22;11.10;99.90
20658;DHT22;10488;50.846;4.078;2022-09-20T20:58:50;11.10;99.90
20658;DHT22;10488;50.846;4.078;2022-09-20T21:01:21;11.00;99.90
20658;DHT22;10488;50.846;4.078;2022-09-20T21:03:49;11.00;99.90
20658;DHT22;10488;50.846;4.078;2022-09-20T21:06:15;11.00;99.90
20658;DHT22;10488;50.846;4.078;2022-09-20T21:08:43;11.00;99.90
20658;DHT22;10488;50.846;4.078;2022-09-20T21:11:25;11.00;99.90
20658;DHT22;10488;50.846;4.078;2022-09-20T21:13:52;11.00;99.90
20658;DHT22;10488;50.846;4.078;2022-09-20T21:16:24;11.00;99.90
20658;DHT22;10488;50.846;4.078;2022-09-20T21:18:50;10.90;99.90
20658;DHT22;10488;50.846;4.078;2022-09-20T21:21:24;10.80;99.90
20658;DHT22;10488;50.846;4.078;2022-09-20T21:23:53;10.80;99.90
20658;DHT22;10488;50.846;4.078;2022-09-20T21:26:20;10.70;99.90
20658;DHT22;10488;50.846;4.078;2022-09-20T21:31:17;10.70;99.90
20658;DHT22;10488;50.846;4.078;2022-09-20T21:33:43;10.70;99.90
20658;DHT22;10488;50.846;4.078;2022-09-20T21:36:14;10.70;99.90
20658;DHT22;10488;50.846;4.078;2022-09-20T21:38:41;10.70;99.90
20658;DHT22;10488;50.846;4.078;2022-09-20T21:41:11;10.70;99.90
20658;DHT22;10488;50.846;4.078;2022-09-20T21:43:39;10.60;99.90
20658;DHT22;10488;50.846;4.078;2022-09-20T21:46:14;10.60;99.90
20658;DHT22;10488;50.846;4.078;2022-09-20T21:48:40;10.60;99.90
20658;DHT22;10488;50.846;4.078;2022-09-20T21:51:07;10.60;99.90
20658;DHT22;10488;50.846;4.078;2022-09-20T21:53:35;10.50;99.90
20658;DHT22;10488;50.846;4.078;2022-09-20T21:56:03;10.50;99.90
20658;DHT22;10488;50.846;4.078;2022-09-20T21:58:29;10.50;99.90
20658;DHT22;10488;50.846;4.078;2022-09-20T22:03:57;10.40;99.90